Time;durP1;ratioP1;P1;durP2;ratioP2;P2;SDS_P1;SDS_P2;PMS_P1;PMS_P2;Temp;Humidity;BMP_temperature;BMP_pressure;BME280_temperature;BME280_humidity;BME280_pressure;Samples;Min_cycle;Max_cycle;Signal;HPM_P1;HPM_P2
2022/09/07 00:06:35;;;;;;;;;;;19.90;99.90;;;;;;8419205;28;19919;-73
2022/09/07 00:20:42;;;;;;;;;;;19.90;99.90;;;;;;8413665;28;19931;-73
2022/09/07 00:24:44;;;;;;;;;;;19.90;99.90;;;;;;8415796;28;19924;-73
2022/09/07 00:28:46;;;;;;;;;;;19.90;99.90;;;;;;8416256;28;19920;-74
2022/09/07 00:32:48;;;;;;;;;;;19.90;99.90;;;;;;8412698;28;19924;-73
2022/09/07 00:36:49;;;;;;;;;;;19.90;99.90;;;;;;8408871;28;20382;-73
2022/09/07 00:40:52;;;;;;;;;;;19.80;99.90;;;;;;8421733;28;19920;-73
2022/09/07 00:45:17;;;;;;;;;;;19.70;99.90;;;;;;8401849;28;19924;-73
2022/09/07 00:49:20;;;;;;;;;;;19.60;99.90;;;;;;8406716;28;19920;-74
2022/09/07 00:53:22;;;;;;;;;;;19.60;99.90;;;;;;8416304;28;20232;-74
2022/09/07 00:57:26;;;;;;;;;;;19.60;99.90;;;;;;8418624;28;19965;-74
2022/09/07 01:01:28;;;;;;;;;;;19.70;99.90;;;;;;8407522;28;19940;-74
2022/09/07 01:05:33;;;;;;;;;;;19.80;99.90;;;;;;8412044;28;19920;-74
2022/09/07 01:09:35;;;;;;;;;;;19.80;99.90;;;;;;8412441;28;19919;-74
2022/09/07 01:13:38;;;;;;;;;;;19.90;99.90;;;;;;8417931;28;19935;-74
2022/09/07 01:17:39;;;;;;;;;;;19.90;99.90;;;;;;8421762;28;19935;-74
2022/09/07 01:21:51;;;;;;;;;;;19.90;99.90;;;;;;8400000;28;19931;-74
2022/09/07 01:26:11;;;;;;;;;;;20.00;99.90;;;;;;8420171;28;19920;-74
2022/09/07 01:30:15;;;;;;;;;;;20.00;99.90;;;;;;8392984;28;19943;-74
2022/09/07 01:34:24;;;;;;;;;;;19.90;99.90;;;;;;8408304;28;20343;-74
2022/09/07 01:38:35;;;;;;;;;;;19.90;99.90;;;;;;8416516;28;20256;-74
2022/09/07 01:42:46;;;;;;;;;;;19.90;99.90;;;;;;8433284;28;20000;-74
2022/09/07 01:46:50;;;;;;;;;;;19.90;99.90;;;;;;8421408;28;19924;-75
2022/09/07 01:50:56;;;;;;;;;;;19.80;99.90;;;;;;8415038;28;19928;-74
2022/09/07 01:55:04;;;;;;;;;;;19.80;99.90;;;;;;8431275;28;19927;-74
2022/09/07 02:04:22;;;;;;;;;;;19.60;99.90;;;;;;8410697;28;19919;-75
2022/09/07 02:08:32;;;;;;;;;;;19.50;99.90;;;;;;8421910;28;19920;-74
2022/09/07 02:12:49;;;;;;;;;;;19.40;99.90;;;;;;8406526;28;19927;-74
2022/09/07 02:16:57;;;;;;;;;;;19.40;99.90;;;;;;8419635;28;20367;-74
2022/09/07 02:26:08;;;;;;;;;;;19.30;99.90;;;;;;8414375;28;20522;-74
2022/09/07 02:30:10;;;;;;;;;;;19.30;99.90;;;;;;8414338;28;19920;-74
2022/09/07 02:34:12;;;;;;;;;;;19.30;99.90;;;;;;8419878;28;19928;-73
2022/09/07 02:38:14;;;;;;;;;;;19.30;99.90;;;;;;8417790;28;19924;-73
2022/09/07 02:42:16;;;;;;;;;;;19.30;99.90;;;;;;8419139;28;20295;-73
2022/09/07 02:46:27;;;;;;;;;;;19.30;99.90;;;;;;8389838;28;20291;-75
2022/09/07 02:50:38;;;;;;;;;;;19.40;99.90;;;;;;8419568;28;19939;-74
2022/09/07 02:54:46;;;;;;;;;;;19.40;99.90;;;;;;8430561;28;20386;-73
2022/09/07 02:58:53;;;;;;;;;;;19.40;99.90;;;;;;8418295;28;19920;-73
2022/09/07 03:03:10;;;;;;;;;;;19.40;99.90;;;;;;8415597;28;19924;-74
2022/09/07 03:07:18;;;;;;;;;;;19.40;99.90;;;;;;8418246;28;20344;-73
2022/09/07 03:11:20;;;;;;;;;;;19.40;99.90;;;;;;8418201;28;20287;-74
2022/09/07 03:15:23;;;;;;;;;;;19.40;99.90;;;;;;8426432;28;19927;-74
2022/09/07 03:19:25;;;;;;;;;;;19.40;99.90;;;;;;8411580;28;20262;-73
2022/09/07 03:23:27;;;;;;;;;;;19.40;99.90;;;;;;8407629;28;19927;-73
2022/09/07 03:27:30;;;;;;;;;;;19.30;99.90;;;;;;8416200;28;19934;-73
2022/09/07 03:31:32;;;;;;;;;;;19.30;99.90;;;;;;8415948;28;20378;-74
2022/09/07 03:35:34;;;;;;;;;;;19.30;99.90;;;;;;8430161;28;20336;-74
2022/09/07 03:39:36;;;;;;;;;;;19.30;99.90;;;;;;8408375;28;19920;-73
2022/09/07 03:43:37;;;;;;;;;;;19.30;99.90;;;;;;8422458;28;19923;-73
2022/09/07 03:47:39;;;;;;;;;;;19.20;99.90;;;;;;8416533;28;19920;-73
2022/09/07 03:51:41;;;;;;;;;;;19.20;99.90;;;;;;8408191;28;20057;-73
2022/09/07 03:55:42;;;;;;;;;;;19.20;99.90;;;;;;8414029;28;19920;-74
2022/09/07 03:59:44;;;;;;;;;;;19.10;99.90;;;;;;8423247;28;19939;-73
2022/09/07 04:03:47;;;;;;;;;;;19.10;99.90;;;;;;8415275;28;19924;-73
2022/09/07 04:07:48;;;;;;;;;;;19.00;99.90;;;;;;8414765;28;20337;-74
2022/09/07 04:11:50;;;;;;;;;;;18.90;99.90;;;;;;8390600;28;19920;-74
2022/09/07 04:15:52;;;;;;;;;;;18.80;99.90;;;;;;8416587;28;19920;-74
2022/09/07 04:19:54;;;;;;;;;;;18.70;99.90;;;;;;8410568;28;20023;-74
2022/09/07 04:23:56;;;;;;;;;;;18.70;99.90;;;;;;8424597;28;19958;-74
2022/09/07 04:27:58;;;;;;;;;;;18.70;99.90;;;;;;8423163;28;20368;-73
2022/09/07 04:32:00;;;;;;;;;;;18.70;99.90;;;;;;8399092;28;19935;-74
2022/09/07 04:36:02;;;;;;;;;;;18.70;99.90;;;;;;8415448;28;19924;-74
2022/09/07 04:40:04;;;;;;;;;;;18.60;99.90;;;;;;8417214;28;19981;-73
2022/09/07 04:44:06;;;;;;;;;;;18.60;99.90;;;;;;8407896;28;19928;-73
2022/09/07 04:48:07;;;;;;;;;;;18.60;99.90;;;;;;8416930;28;19924;-74
2022/09/07 04:52:09;;;;;;;;;;;18.60;99.90;;;;;;8428932;28;19919;-73
2022/09/07 04:56:11;;;;;;;;;;;18.60;99.90;;;;;;8411180;28;19920;-74
2022/09/07 05:00:17;;;;;;;;;;;18.60;99.90;;;;;;8414155;28;19947;-73
2022/09/07 05:04:19;;;;;;;;;;;18.60;99.90;;;;;;8392912;28;19923;-74
2022/09/07 05:08:20;;;;;;;;;;;18.60;99.90;;;;;;8427537;28;20027;-74
2022/09/07 05:12:22;;;;;;;;;;;18.60;99.90;;;;;;8413139;28;19969;-73
2022/09/07 05:16:24;;;;;;;;;;;18.60;99.90;;;;;;8408224;28;19927;-74
2022/09/07 05:20:26;;;;;;;;;;;18.50;99.90;;;;;;8400399;28;19930;-73
2022/09/07 05:24:27;;;;;;;;;;;18.50;99.90;;;;;;8410312;28;19920;-73
2022/09/07 05:28:29;;;;;;;;;;;18.50;99.90;;;;;;8422194;28;19927;-73
2022/09/07 05:32:31;;;;;;;;;;;18.50;99.90;;;;;;8400278;28;19965;-74
2022/09/07 05:36:33;;;;;;;;;;;18.40;99.90;;;;;;8425994;28;19920;-73
2022/09/07 05:40:34;;;;;;;;;;;18.40;99.90;;;;;;8426137;28;19924;-74
2022/09/07 05:44:41;;;;;;;;;;;18.30;99.90;;;;;;8427268;28;20379;-74
2022/09/07 05:48:47;;;;;;;;;;;18.30;99.90;;;;;;8410975;28;19927;-74
2022/09/07 05:52:49;;;;;;;;;;;18.20;99.90;;;;;;8412606;28;20381;-74
2022/09/07 05:56:51;;;;;;;;;;;18.30;99.90;;;;;;8415383;28;19927;-73
2022/09/07 06:00:56;;;;;;;;;;;18.30;99.90;;;;;;8419916;28;19928;-74
2022/09/07 06:10:01;;;;;;;;;;;18.20;99.90;;;;;;8413683;28;19927;-73
2022/09/07 06:14:22;;;;;;;;;;;18.20;99.90;;;;;;8414066;28;19952;-73
2022/09/07 06:18:27;;;;;;;;;;;18.20;99.90;;;;;;8424603;28;19919;-73
2022/09/07 06:22:29;;;;;;;;;;;18.20;99.90;;;;;;8417692;28;20006;-74
2022/09/07 06:26:31;;;;;;;;;;;18.20;99.90;;;;;;8421393;28;19920;-74
2022/09/07 06:30:33;;;;;;;;;;;18.20;99.90;;;;;;8412983;28;19920;-73
2022/09/07 06:34:35;;;;;;;;;;;18.20;99.90;;;;;;8417395;28;19920;-73
2022/09/07 06:38:37;;;;;;;;;;;18.20;99.90;;;;;;8420590;28;19924;-74
2022/09/07 06:42:38;;;;;;;;;;;18.20;99.90;;;;;;8431997;28;19919;-74
2022/09/07 06:46:40;;;;;;;;;;;18.30;99.90;;;;;;8416216;28;20331;-73
2022/09/07 07:01:15;;;;;;;;;;;18.60;99.90;;;;;;8423289;28;19919;-73
2022/09/07 07:05:17;;;;;;;;;;;18.60;99.90;;;;;;8421448;28;19956;-74
2022/09/07 07:09:18;;;;;;;;;;;18.60;99.90;;;;;;8423357;28;19920;-73
2022/09/07 07:13:20;;;;;;;;;;;18.60;99.90;;;;;;8408819;28;19931;-74
2022/09/07 07:17:20;;;;;;;;;;;18.70;99.90;;;;;;8402655;28;19985;-74
2022/09/07 07:21:22;;;;;;;;;;;18.70;99.90;;;;;;8414226;28;19924;-73
2022/09/07 07:25:24;;;;;;;;;;;18.80;99.90;;;;;;8420490;28;19920;-74
2022/09/07 07:29:25;;;;;;;;;;;18.90;99.90;;;;;;8401180;28;19920;-74
2022/09/07 07:33:32;;;;;;;;;;;19.00;99.90;;;;;;8418977;28;19920;-74
2022/09/07 07:37:35;;;;;;;;;;;19.00;99.90;;;;;;8402481;28;19971;-73
2022/09/07 07:47:12;;;;;;;;;;;19.10;99.90;;;;;;8428345;28;20382;-74
2022/09/07 07:51:14;;;;;;;;;;;19.10;99.90;;;;;;8421286;28;19934;-74
2022/09/07 07:55:16;;;;;;;;;;;19.10;99.90;;;;;;8423132;28;19946;-74
2022/09/07 07:59:37;;;;;;;;;;;19.10;99.90;;;;;;8434939;28;19932;-73
2022/09/07 08:03:40;;;;;;;;;;;19.20;99.90;;;;;;8420342;28;19939;-74
2022/09/07 08:07:42;;;;;;;;;;;19.20;99.90;;;;;;8426935;28;20446;-73
2022/09/07 08:11:44;;;;;;;;;;;19.20;99.90;;;;;;8409127;28;20449;-73
2022/09/07 08:15:46;;;;;;;;;;;19.20;99.90;;;;;;8405975;28;19986;-74
2022/09/07 08:19:47;;;;;;;;;;;19.20;99.90;;;;;;8401942;28;19940;-73
2022/09/07 08:23:49;;;;;;;;;;;19.20;99.90;;;;;;8426118;28;20039;-73
2022/09/07 08:27:51;;;;;;;;;;;19.20;99.90;;;;;;8418596;28;19919;-73
2022/09/07 08:31:53;;;;;;;;;;;19.30;99.90;;;;;;8418862;28;19920;-73
2022/09/07 08:35:55;;;;;;;;;;;19.30;99.90;;;;;;8419107;28;19938;-73
2022/09/07 08:39:56;;;;;;;;;;;19.40;99.90;;;;;;8413713;28;19932;-73
2022/09/07 08:44:34;;;;;;;;;;;19.50;99.90;;;;;;8403465;28;20302;-73
2022/09/07 08:48:36;;;;;;;;;;;19.60;99.90;;;;;;8333042;28;20355;-73
2022/09/07 08:52:41;;;;;;;;;;;19.60;99.90;;;;;;8427896;28;20401;-74
2022/09/07 08:56:47;;;;;;;;;;;19.60;99.90;;;;;;8425623;28;20331;-73
2022/09/07 09:01:11;;;;;;;;;;;19.70;99.90;;;;;;8415838;28;19988;-73
2022/09/07 09:05:38;;;;;;;;;;;19.80;99.90;;;;;;8435242;28;19957;-73
2022/09/07 09:09:44;;;;;;;;;;;19.80;99.90;;;;;;8425751;28;19920;-73
2022/09/07 09:13:46;;;;;;;;;;;19.90;99.90;;;;;;8418645;28;20293;-73
2022/09/07 09:17:58;;;;;;;;;;;20.00;99.90;;;;;;8429339;28;20311;-73
2022/09/07 09:22:19;;;;;;;;;;;20.10;99.90;;;;;;8413551;28;20022;-74
2022/09/07 09:26:22;;;;;;;;;;;20.10;99.90;;;;;;8410979;28;19971;-73
2022/09/07 09:30:25;;;;;;;;;;;20.20;99.90;;;;;;8425754;28;19920;-74
2022/09/07 09:34:26;;;;;;;;;;;20.30;99.90;;;;;;8397545;28;19959;-73
2022/09/07 09:38:31;;;;;;;;;;;20.40;99.90;;;;;;8424520;28;19943;-73
2022/09/07 09:42:34;;;;;;;;;;;20.50;99.90;;;;;;8417658;28;19931;-73
2022/09/07 09:46:36;;;;;;;;;;;20.60;99.90;;;;;;8417623;28;20393;-74
2022/09/07 09:50:39;;;;;;;;;;;20.60;99.90;;;;;;8416055;28;19934;-73
2022/09/07 09:55:03;;;;;;;;;;;20.70;99.90;;;;;;8427693;28;19982;-73
2022/09/07 09:59:32;;;;;;;;;;;20.80;99.90;;;;;;8429622;28;20015;-74
2022/09/07 10:03:53;;;;;;;;;;;21.00;99.90;;;;;;8419165;28;19924;-74
2022/09/07 10:08:00;;;;;;;;;;;21.30;99.90;;;;;;8430184;28;19920;-73
2022/09/07 10:12:02;;;;;;;;;;;21.40;99.90;;;;;;8423241;28;20331;-73
2022/09/07 10:16:07;;;;;;;;;;;21.50;99.90;;;;;;8413992;28;19920;-73
2022/09/07 10:20:15;;;;;;;;;;;21.50;99.90;;;;;;8424446;28;19920;-73
2022/09/07 10:24:21;;;;;;;;;;;21.50;99.90;;;;;;8415120;28;19962;-73
2022/09/07 10:28:23;;;;;;;;;;;21.60;99.90;;;;;;8413371;28;20090;-73
2022/09/07 10:32:32;;;;;;;;;;;21.70;99.90;;;;;;8419475;28;19920;-74
2022/09/07 10:36:52;;;;;;;;;;;21.80;99.90;;;;;;8414173;28;19946;-73
2022/09/07 10:41:06;;;;;;;;;;;21.90;99.90;;;;;;8417904;28;19924;-73
2022/09/07 10:45:18;;;;;;;;;;;22.00;99.90;;;;;;8422187;28;19931;-73
2022/09/07 10:49:26;;;;;;;;;;;22.00;99.90;;;;;;8415987;28;20328;-73
2022/09/07 10:53:51;;;;;;;;;;;22.10;99.90;;;;;;8406981;28;19919;-73
2022/09/07 10:58:12;;;;;;;;;;;22.00;99.90;;;;;;8391100;28;19923;-74
2022/09/07 11:02:20;;;;;;;;;;;22.10;99.90;;;;;;8390025;28;19920;-73
2022/09/07 11:06:29;;;;;;;;;;;22.10;99.90;;;;;;8401394;28;19935;-73
2022/09/07 11:10:49;;;;;;;;;;;22.30;99.90;;;;;;8395628;28;20012;-74
2022/09/07 11:14:57;;;;;;;;;;;22.30;99.90;;;;;;8402019;28;19935;-74
2022/09/07 11:19:10;;;;;;;;;;;22.40;99.90;;;;;;8397910;28;20269;-74
2022/09/07 11:23:31;;;;;;;;;;;22.40;99.90;;;;;;8405216;28;19920;-74
2022/09/07 11:27:51;;;;;;;;;;;22.50;99.90;;;;;;8398543;28;19928;-74
2022/09/07 11:31:54;;;;;;;;;;;22.60;99.90;;;;;;8398233;28;20352;-74
2022/09/07 11:36:01;;;;;;;;;;;22.50;99.90;;;;;;8386626;28;19920;-73
2022/09/07 11:40:10;;;;;;;;;;;22.50;99.90;;;;;;8402564;28;19920;-74
2022/09/07 11:44:44;;;;;;;;;;;22.50;99.90;;;;;;8394588;28;19977;-74
2022/09/07 11:48:52;;;;;;;;;;;22.70;99.90;;;;;;8358371;28;19920;-74
2022/09/07 11:53:01;;;;;;;;;;;22.80;99.90;;;;;;8397024;28;20363;-74
2022/09/07 11:57:21;;;;;;;;;;;22.90;99.90;;;;;;8398841;28;19928;-73
2022/09/07 12:01:31;;;;;;;;;;;23.10;99.90;;;;;;8412470;28;20375;-74
2022/09/07 12:05:32;;;;;;;;;;;23.20;99.90;;;;;;8404687;28;19954;-74
2022/09/07 12:09:58;;;;;;;;;;;23.20;99.90;;;;;;8400518;28;20271;-74
2022/09/07 12:14:20;;;;;;;;;;;23.30;99.90;;;;;;8407910;28;19951;-74
2022/09/07 12:18:31;;;;;;;;;;;23.40;99.90;;;;;;8421321;28;19921;-74
2022/09/07 12:22:33;;;;;;;;;;;23.40;99.90;;;;;;8413632;28;19927;-74
2022/09/07 12:26:35;;;;;;;;;;;23.50;99.90;;;;;;8409606;28;19935;-74
2022/09/07 12:30:36;;;;;;;;;;;23.50;99.90;;;;;;8411366;28;19928;-74
2022/09/07 12:34:38;;;;;;;;;;;23.50;99.90;;;;;;8418385;28;19931;-74
2022/09/07 12:39:03;;;;;;;;;;;23.60;99.90;;;;;;8412146;28;19924;-74
2022/09/07 12:48:14;;;;;;;;;;;23.70;99.90;;;;;;8392104;28;19924;-74
2022/09/07 12:52:16;;;;;;;;;;;23.80;99.90;;;;;;8398871;28;20017;-74
2022/09/07 12:56:21;;;;;;;;;;;23.90;99.90;;;;;;8401079;28;19927;-74
2022/09/07 13:00:30;;;;;;;;;;;24.00;99.90;;;;;;8399685;28;20291;-74
2022/09/07 13:04:34;;;;;;;;;;;23.90;99.90;;;;;;8400161;28;19925;-74
2022/09/07 13:08:59;;;;;;;;;;;23.80;99.90;;;;;;8375251;28;19950;-74
2022/09/07 13:13:02;;;;;;;;;;;23.70;99.90;;;;;;8394643;28;20353;-74
2022/09/07 13:17:23;;;;;;;;;;;23.70;99.90;;;;;;8402896;28;19934;-73
2022/09/07 13:21:33;;;;;;;;;;;23.70;99.90;;;;;;8398534;28;19927;-74
2022/09/07 13:25:41;;;;;;;;;;;23.70;99.90;;;;;;8397334;28;19928;-73
2022/09/07 13:29:47;;;;;;;;;;;23.70;99.90;;;;;;8383876;28;19928;-73
2022/09/07 13:33:49;;;;;;;;;;;23.80;99.90;;;;;;8390694;28;19934;-74
2022/09/07 13:37:53;;;;;;;;;;;23.80;99.90;;;;;;8386001;28;19932;-73
2022/09/07 13:41:55;;;;;;;;;;;23.90;99.90;;;;;;8387813;28;19927;-74
2022/09/07 13:46:01;;;;;;;;;;;24.00;99.90;;;;;;8402670;28;19920;-74
2022/09/07 13:50:13;;;;;;;;;;;24.20;99.90;;;;;;8396660;28;19928;-74
2022/09/07 13:54:33;;;;;;;;;;;24.20;99.90;;;;;;8404617;28;19920;-74
2022/09/07 13:58:38;;;;;;;;;;;24.10;99.90;;;;;;8408929;28;20297;-73
2022/09/07 14:02:40;;;;;;;;;;;24.10;99.90;;;;;;8398864;28;19923;-74
2022/09/07 14:06:42;;;;;;;;;;;24.40;99.90;;;;;;8401160;28;19920;-74
2022/09/07 14:10:46;;;;;;;;;;;24.60;99.90;;;;;;8382861;28;19930;-73
2022/09/07 14:15:07;;;;;;;;;;;24.80;99.90;;;;;;8402060;28;20278;-74
2022/09/07 14:19:11;;;;;;;;;;;24.90;99.90;;;;;;8394927;28;19932;-74
2022/09/07 14:23:18;;;;;;;;;;;24.80;99.90;;;;;;8395417;28;19924;-74
2022/09/07 14:27:31;;;;;;;;;;;24.70;99.90;;;;;;8398158;28;19924;-74
2022/09/07 14:31:33;;;;;;;;;;;24.50;99.90;;;;;;8404523;28;19946;-75
2022/09/07 14:35:39;;;;;;;;;;;24.50;99.90;;;;;;8405475;28;19930;-74
2022/09/07 14:39:42;;;;;;;;;;;24.40;99.90;;;;;;8394522;28;19926;-75
2022/09/07 14:43:51;;;;;;;;;;;24.30;99.90;;;;;;8392559;28;19923;-74
2022/09/07 14:47:54;;;;;;;;;;;24.30;99.90;;;;;;8402513;28;20023;-74
2022/09/07 14:51:55;;;;;;;;;;;24.40;99.90;;;;;;8386249;28;20061;-74
2022/09/07 14:56:01;;;;;;;;;;;24.50;99.90;;;;;;8396477;28;20022;-73
2022/09/07 15:00:39;;;;;;;;;;;24.60;99.90;;;;;;8391932;28;20062;-74
2022/09/07 15:04:40;;;;;;;;;;;24.70;99.90;;;;;;8314224;28;19931;-74
2022/09/07 15:08:45;;;;;;;;;;;24.80;99.90;;;;;;8397301;28;19927;-74
2022/09/07 15:12:48;;;;;;;;;;;24.80;99.90;;;;;;8372126;28;20298;-75
2022/09/07 15:16:59;;;;;;;;;;;24.90;99.90;;;;;;8380830;28;21166;-74
2022/09/07 15:21:22;;;;;;;;;;;25.00;99.90;;;;;;8379306;28;19927;-74
2022/09/07 15:25:23;;;;;;;;;;;25.10;99.90;;;;;;8393542;28;19963;-74
2022/09/07 15:29:25;;;;;;;;;;;25.10;99.90;;;;;;8396747;28;19934;-73
2022/09/07 15:33:29;;;;;;;;;;;25.30;99.90;;;;;;8397488;28;19974;-73
2022/09/07 15:37:31;;;;;;;;;;;25.50;99.90;;;;;;8398445;28;19931;-74
2022/09/07 15:41:53;;;;;;;;;;;25.60;99.90;;;;;;8399597;28;20436;-74
2022/09/07 15:45:55;;;;;;;;;;;25.80;99.90;;;;;;8399858;28;20334;-74
2022/09/07 15:49:56;;;;;;;;;;;25.80;99.90;;;;;;8395477;28;19920;-74
2022/09/07 15:54:00;;;;;;;;;;;25.80;99.90;;;;;;8392255;28;19924;-76
2022/09/07 15:58:13;;;;;;;;;;;25.60;99.90;;;;;;8395437;28;19927;-74
2022/09/07 16:02:16;;;;;;;;;;;25.40;99.90;;;;;;8401650;28;20394;-74
2022/09/07 16:06:37;;;;;;;;;;;25.30;99.90;;;;;;8393903;28;19954;-74
2022/09/07 16:10:40;;;;;;;;;;;25.20;99.90;;;;;;8388894;28;20015;-74
2022/09/07 16:14:41;;;;;;;;;;;25.10;99.90;;;;;;8395928;28;19932;-74
2022/09/07 16:18:43;;;;;;;;;;;25.00;99.90;;;;;;8396906;28;19927;-74
2022/09/07 16:22:47;;;;;;;;;;;25.00;99.90;;;;;;8397759;28;20360;-74
2022/09/07 16:27:09;;;;;;;;;;;25.00;99.90;;;;;;8397900;28;19920;-74
2022/09/07 16:31:13;;;;;;;;;;;25.00;99.90;;;;;;8394310;28;23966;-74
2022/09/07 16:35:16;;;;;;;;;;;25.00;99.90;;;;;;8399629;28;20023;-74
2022/09/07 16:39:19;;;;;;;;;;;24.90;99.90;;;;;;8386872;28;19920;-74
2022/09/07 16:43:20;;;;;;;;;;;24.90;99.90;;;;;;8388837;28;20007;-73
2022/09/07 16:47:22;;;;;;;;;;;24.90;99.90;;;;;;8393416;28;19947;-73
2022/09/07 16:51:25;;;;;;;;;;;25.00;99.90;;;;;;8395564;28;20011;-74
2022/09/07 16:55:26;;;;;;;;;;;25.10;99.90;;;;;;8375525;28;19930;-73
2022/09/07 16:59:28;;;;;;;;;;;25.20;99.90;;;;;;8389913;28;20035;-73
2022/09/07 17:03:29;;;;;;;;;;;25.10;99.90;;;;;;8391543;28;19920;-73
2022/09/07 17:07:31;;;;;;;;;;;25.10;99.90;;;;;;8391454;28;20114;-74
2022/09/07 17:11:34;;;;;;;;;;;25.10;99.90;;;;;;8403818;28;19931;-73
2022/09/07 17:15:35;;;;;;;;;;;25.00;99.90;;;;;;8404453;28;19931;-73
2022/09/07 17:19:37;;;;;;;;;;;24.90;99.90;;;;;;8397030;28;19969;-73
2022/09/07 17:23:39;;;;;;;;;;;24.90;99.90;;;;;;8396660;28;19920;-73
2022/09/07 17:27:51;;;;;;;;;;;25.00;99.90;;;;;;8399417;28;19994;-74
2022/09/07 17:31:53;;;;;;;;;;;25.20;99.90;;;;;;8410428;28;20351;-72
2022/09/07 17:36:15;;;;;;;;;;;25.20;99.90;;;;;;8396774;28;19924;-74
2022/09/07 17:40:18;;;;;;;;;;;25.20;99.90;;;;;;8398135;28;19920;-73
2022/09/07 17:44:20;;;;;;;;;;;25.10;99.90;;;;;;8402399;28;19950;-73
2022/09/07 17:48:22;;;;;;;;;;;24.90;99.90;;;;;;8391206;28;19928;-74
2022/09/07 17:52:24;;;;;;;;;;;24.70;99.90;;;;;;8402757;28;20010;-73
2022/09/07 17:56:26;;;;;;;;;;;24.40;99.90;;;;;;8401549;28;20345;-74
2022/09/07 18:00:28;;;;;;;;;;;24.10;99.90;;;;;;8396249;28;20375;-73
2022/09/07 18:04:29;;;;;;;;;;;23.90;99.90;;;;;;8399988;28;20409;-74
2022/09/07 18:08:31;;;;;;;;;;;23.60;99.90;;;;;;8405199;28;19967;-74
2022/09/07 18:12:33;;;;;;;;;;;23.40;99.90;;;;;;8392735;28;20023;-74
2022/09/07 18:16:35;;;;;;;;;;;23.20;99.90;;;;;;8397732;28;20007;-73
2022/09/07 18:20:37;;;;;;;;;;;23.10;99.90;;;;;;8391659;28;19924;-73
2022/09/07 18:24:39;;;;;;;;;;;23.00;99.90;;;;;;8399019;28;20263;-73
2022/09/07 18:28:40;;;;;;;;;;;22.80;99.90;;;;;;8398151;28;20030;-73
2022/09/07 18:33:03;;;;;;;;;;;22.70;99.90;;;;;;8388067;28;20272;-73
2022/09/07 18:37:04;;;;;;;;;;;22.60;99.90;;;;;;8385803;28;19920;-73
2022/09/07 18:41:10;;;;;;;;;;;22.50;99.90;;;;;;8405705;28;19938;-73
2022/09/07 18:45:12;;;;;;;;;;;22.40;99.90;;;;;;8398698;28;19926;-73
2022/09/07 18:49:29;;;;;;;;;;;22.40;99.90;;;;;;8397188;28;19924;-73
2022/09/07 18:53:31;;;;;;;;;;;22.30;99.90;;;;;;8398695;28;19928;-73
2022/09/07 18:57:33;;;;;;;;;;;22.20;99.90;;;;;;8396459;28;19963;-73
2022/09/07 19:01:36;;;;;;;;;;;22.10;99.90;;;;;;8392729;28;20023;-73
2022/09/07 19:05:38;;;;;;;;;;;22.10;99.90;;;;;;8388148;28;19920;-73
2022/09/07 19:09:55;;;;;;;;;;;22.00;99.90;;;;;;8395315;28;19921;-74
2022/09/07 19:13:58;;;;;;;;;;;21.90;99.90;;;;;;8383183;28;19927;-73
2022/09/07 19:17:59;;;;;;;;;;;21.90;99.90;;;;;;8393196;28;19920;-73
2022/09/07 19:22:02;;;;;;;;;;;21.80;99.90;;;;;;8383425;28;19930;-73
2022/09/07 19:26:05;;;;;;;;;;;21.80;99.90;;;;;;8378091;28;20259;-73
2022/09/07 19:30:06;;;;;;;;;;;21.70;99.90;;;;;;8389577;28;20356;-72
2022/09/07 19:34:09;;;;;;;;;;;21.60;99.90;;;;;;8394511;28;19928;-73
2022/09/07 19:38:11;;;;;;;;;;;21.60;99.90;;;;;;8397390;28;19960;-73
2022/09/07 19:42:13;;;;;;;;;;;21.50;99.90;;;;;;8395302;28;20011;-73
2022/09/07 19:46:15;;;;;;;;;;;21.40;99.90;;;;;;8376671;28;20051;-72
2022/09/07 19:50:21;;;;;;;;;;;21.40;99.90;;;;;;8387064;28;19931;-73
2022/09/07 19:54:22;;;;;;;;;;;21.30;99.90;;;;;;8389771;28;20014;-73
2022/09/07 19:58:24;;;;;;;;;;;21.20;99.90;;;;;;8368320;28;19926;-72
2022/09/07 20:02:25;;;;;;;;;;;21.10;99.90;;;;;;8374448;28;19928;-73
2022/09/07 20:06:28;;;;;;;;;;;21.10;99.90;;;;;;8394836;28;19920;-73
2022/09/07 20:10:30;;;;;;;;;;;21.00;99.90;;;;;;8394658;28;19920;-73
2022/09/07 20:14:32;;;;;;;;;;;20.90;99.90;;;;;;8396281;28;19927;-72
2022/09/07 20:18:34;;;;;;;;;;;20.80;99.90;;;;;;8395491;28;19928;-72
2022/09/07 20:22:35;;;;;;;;;;;20.80;99.90;;;;;;8397022;28;19963;-73
2022/09/07 20:26:37;;;;;;;;;;;20.80;99.90;;;;;;8396698;28;19924;-73
2022/09/07 20:30:42;;;;;;;;;;;20.70;99.90;;;;;;8384321;28;20033;-72
2022/09/07 20:34:45;;;;;;;;;;;20.70;99.90;;;;;;8387299;28;19927;-73
2022/09/07 20:38:48;;;;;;;;;;;20.70;99.90;;;;;;8395966;28;19921;-72
2022/09/07 20:42:49;;;;;;;;;;;20.70;99.90;;;;;;8398846;28;20022;-73
2022/09/07 20:46:51;;;;;;;;;;;20.60;99.90;;;;;;8389595;28;19920;-73
2022/09/07 20:50:56;;;;;;;;;;;20.60;99.90;;;;;;8393825;28;19975;-72
2022/09/07 20:54:58;;;;;;;;;;;20.50;99.90;;;;;;8401186;28;20043;-73
2022/09/07 20:59:00;;;;;;;;;;;20.50;99.90;;;;;;8388522;28;19931;-73
2022/09/07 21:03:02;;;;;;;;;;;20.40;99.90;;;;;;8421302;28;19974;-73
2022/09/07 21:07:04;;;;;;;;;;;20.30;99.90;;;;;;8420336;28;20550;-72
2022/09/07 21:11:06;;;;;;;;;;;20.30;99.90;;;;;;8403439;28;19928;-73
2022/09/07 21:15:08;;;;;;;;;;;20.20;99.90;;;;;;8410196;28;19931;-72
2022/09/07 21:19:10;;;;;;;;;;;20.20;99.90;;;;;;8400644;28;20333;-72
2022/09/07 21:23:11;;;;;;;;;;;20.20;99.90;;;;;;8413856;28;19970;-72
2022/09/07 21:27:13;;;;;;;;;;;20.20;99.90;;;;;;8416753;28;19931;-72
2022/09/07 21:31:15;;;;;;;;;;;20.10;99.90;;;;;;8390472;28;19933;-73
2022/09/07 21:35:17;;;;;;;;;;;20.10;99.90;;;;;;8413650;28;20268;-72
2022/09/07 21:39:19;;;;;;;;;;;20.10;99.90;;;;;;8413236;28;19931;-72
2022/09/07 21:43:21;;;;;;;;;;;20.10;99.90;;;;;;8406043;28;19920;-73
2022/09/07 21:47:23;;;;;;;;;;;20.00;99.90;;;;;;8408407;28;19920;-72
2022/09/07 21:51:25;;;;;;;;;;;20.00;99.90;;;;;;8409987;28;20753;-72
2022/09/07 21:55:27;;;;;;;;;;;20.00;99.90;;;;;;8413604;28;19970;-73
2022/09/07 21:59:28;;;;;;;;;;;20.00;99.90;;;;;;8409224;28;19934;-73
2022/09/07 22:03:30;;;;;;;;;;;20.00;99.90;;;;;;8416444;28;20114;-73
2022/09/07 22:07:33;;;;;;;;;;;19.90;99.90;;;;;;8394319;28;19946;-73
2022/09/07 22:11:34;;;;;;;;;;;19.90;99.90;;;;;;8402421;28;20011;-72
2022/09/07 22:15:37;;;;;;;;;;;19.90;99.90;;;;;;8411588;28;19926;-72
2022/09/07 22:19:39;;;;;;;;;;;19.90;99.90;;;;;;8403841;28;19950;-73
2022/09/07 22:23:42;;;;;;;;;;;19.90;99.90;;;;;;8426441;28;20359;-72
2022/09/07 22:27:44;;;;;;;;;;;19.80;99.90;;;;;;8420920;28;19975;-72
2022/09/07 22:31:46;;;;;;;;;;;19.80;99.90;;;;;;8388325;28;19920;-73
2022/09/07 22:35:47;;;;;;;;;;;19.80;99.90;;;;;;8399427;28;19923;-72
2022/09/07 22:39:49;;;;;;;;;;;19.80;99.90;;;;;;8395534;28;19924;-73
2022/09/07 22:43:50;;;;;;;;;;;19.80;99.90;;;;;;8419798;28;19920;-73
2022/09/07 22:47:52;;;;;;;;;;;19.80;99.90;;;;;;8410458;28;20860;-73
2022/09/07 22:51:54;;;;;;;;;;;19.80;99.90;;;;;;8411407;28;19920;-73
2022/09/07 22:55:55;;;;;;;;;;;19.80;99.90;;;;;;8411548;28;19928;-73
2022/09/07 22:59:57;;;;;;;;;;;19.80;99.90;;;;;;8385056;28;20015;-72
2022/09/07 23:03:59;;;;;;;;;;;19.80;99.90;;;;;;8420898;28;20392;-73
2022/09/07 23:08:01;;;;;;;;;;;19.90;99.90;;;;;;8411830;28;19950;-73
2022/09/07 23:12:02;;;;;;;;;;;19.90;99.90;;;;;;8409167;28;20028;-73
2022/09/07 23:16:05;;;;;;;;;;;19.90;99.90;;;;;;8405398;28;20419;-73
2022/09/07 23:20:07;;;;;;;;;;;19.90;99.90;;;;;;8398903;28;19954;-73
2022/09/07 23:24:11;;;;;;;;;;;19.90;99.90;;;;;;8414373;28;19928;-73
2022/09/07 23:28:12;;;;;;;;;;;19.90;99.90;;;;;;8417367;28;19970;-72
2022/09/07 23:32:14;;;;;;;;;;;19.80;99.90;;;;;;8410890;28;19920;-73
2022/09/07 23:36:16;;;;;;;;;;;19.80;99.90;;;;;;8413933;28;19924;-73
2022/09/07 23:40:19;;;;;;;;;;;19.80;99.90;;;;;;8403910;28;20002;-72
2022/09/07 23:44:20;;;;;;;;;;;19.80;99.90;;;;;;8415763;28;19971;-73
2022/09/07 23:48:22;;;;;;;;;;;19.70;99.90;;;;;;8415580;28;19919;-72
2022/09/07 23:52:24;;;;;;;;;;;19.70;99.90;;;;;;8415733;28;19928;-72
2022/09/07 23:56:25;;;;;;;;;;;19.70;99.90;;;;;;8412538;28;19923;-73
